sensor_id;sensor_type;location;lat;lon;timestamp;temperature;humidity
13665;DHT22;6905;50.770;6.730;2022-12-05T03:17:58;2.00;99.90
13665;DHT22;6905;50.770;6.730;2022-12-05T03:20:30;2.00;99.90
13665;DHT22;6905;50.770;6.730;2022-12-05T03:23:00;2.00;99.90
13665;DHT22;6905;50.770;6.730;2022-12-05T03:25:29;2.00;99.90
13665;DHT22;6905;50.770;6.730;2022-12-05T03:27:58;2.00;99.90
13665;DHT22;6905;50.770;6.730;2022-12-05T03:30:30;2.00;99.90
13665;DHT22;6905;50.770;6.730;2022-12-05T03:33:04;2.00;99.90
13665;DHT22;6905;50.770;6.730;2022-12-05T03:35:34;2.00;99.90
13665;DHT22;6905;50.770;6.730;2022-12-05T03:38:02;2.00;99.90
13665;DHT22;6905;50.770;6.730;2022-12-05T03:40:31;2.00;99.90
13665;DHT22;6905;50.770;6.730;2022-12-05T03:43:00;2.00;99.90
13665;DHT22;6905;50.770;6.730;2022-12-05T03:45:31;2.00;99.90
13665;DHT22;6905;50.770;6.730;2022-12-05T03:48:04;2.00;99.90
13665;DHT22;6905;50.770;6.730;2022-12-05T03:50:33;2.00;99.90
13665;DHT22;6905;50.770;6.730;2022-12-05T03:53:01;2.00;99.90
13665;DHT22;6905;50.770;6.730;2022-12-05T03:55:30;2.00;99.90
13665;DHT22;6905;50.770;6.730;2022-12-05T03:57:59;2.00;99.90
13665;DHT22;6905;50.770;6.730;2022-12-05T04:00:42;2.00;99.90
13665;DHT22;6905;50.770;6.730;2022-12-05T04:03:30;2.00;99.90
13665;DHT22;6905;50.770;6.730;2022-12-05T04:06:03;2.00;99.90
13665;DHT22;6905;50.770;6.730;2022-12-05T04:08:36;2.00;99.90
13665;DHT22;6905;50.770;6.730;2022-12-05T04:11:06;2.00;99.90
13665;DHT22;6905;50.770;6.730;2022-12-05T04:13:38;2.00;99.90
13665;DHT22;6905;50.770;6.730;2022-12-05T04:16:09;2.00;99.90
13665;DHT22;6905;50.770;6.730;2022-12-05T04:18:56;1.90;99.90
13665;DHT22;6905;50.770;6.730;2022-12-05T04:21:26;2.00;99.90
13665;DHT22;6905;50.770;6.730;2022-12-05T04:24:03;1.90;99.90
13665;DHT22;6905;50.770;6.730;2022-12-05T04:26:48;1.90;99.90
13665;DHT22;6905;50.770;6.730;2022-12-05T04:29:25;1.90;99.90
13665;DHT22;6905;50.770;6.730;2022-12-05T04:31:55;1.90;99.90
13665;DHT22;6905;50.770;6.730;2022-12-05T04:34:29;1.90;99.90
13665;DHT22;6905;50.770;6.730;2022-12-05T04:36:59;1.90;99.90
13665;DHT22;6905;50.770;6.730;2022-12-05T04:39:30;1.90;99.90
13665;DHT22;6905;50.770;6.730;2022-12-05T04:42:01;1.80;99.90
13665;DHT22;6905;50.770;6.730;2022-12-05T04:44:33;1.90;99.90
13665;DHT22;6905;50.770;6.730;2022-12-05T04:47:05;1.90;99.90
13665;DHT22;6905;50.770;6.730;2022-12-05T04:49:36;1.90;99.90
13665;DHT22;6905;50.770;6.730;2022-12-05T04:52:07;1.80;99.90
13665;DHT22;6905;50.770;6.730;2022-12-05T04:54:37;1.80;99.90
13665;DHT22;6905;50.770;6.730;2022-12-05T04:57:11;1.90;99.90
13665;DHT22;6905;50.770;6.730;2022-12-05T04:59:40;1.80;99.90
13665;DHT22;6905;50.770;6.730;2022-12-05T05:02:08;1.80;99.90
13665;DHT22;6905;50.770;6.730;2022-12-05T05:04:38;1.80;99.90
13665;DHT22;6905;50.770;6.730;2022-12-05T05:07:07;1.80;99.90
13665;DHT22;6905;50.770;6.730;2022-12-05T05:09:35;1.80;99.90
13665;DHT22;6905;50.770;6.730;2022-12-05T05:12:03;1.80;99.90
13665;DHT22;6905;50.770;6.730;2022-12-05T05:14:31;1.70;99.90
13665;DHT22;6905;50.770;6.730;2022-12-05T05:17:01;1.80;99.90
13665;DHT22;6905;50.770;6.730;2022-12-05T05:19:28;1.80;99.90
13665;DHT22;6905;50.770;6.730;2022-12-05T05:21:56;1.80;99.90
13665;DHT22;6905;50.770;6.730;2022-12-05T05:24:39;1.80;99.90
13665;DHT22;6905;50.770;6.730;2022-12-05T05:27:29;1.80;99.90
13665;DHT22;6905;50.770;6.730;2022-12-05T05:29:56;1.80;99.90
13665;DHT22;6905;50.770;6.730;2022-12-05T05:32:23;1.80;99.90
13665;DHT22;6905;50.770;6.730;2022-12-05T05:34:49;1.80;99.90
13665;DHT22;6905;50.770;6.730;2022-12-05T05:37:17;1.80;99.90
13665;DHT22;6905;50.770;6.730;2022-12-05T05:39:45;1.80;99.90
13665;DHT22;6905;50.770;6.730;2022-12-05T05:42:12;1.80;99.90
13665;DHT22;6905;50.770;6.730;2022-12-05T05:44:39;1.80;99.90
13665;DHT22;6905;50.770;6.730;2022-12-05T05:47:05;1.80;99.90
13665;DHT22;6905;50.770;6.730;2022-12-05T05:49:32;1.80;99.90
13665;DHT22;6905;50.770;6.730;2022-12-05T05:51:58;1.80;99.90
13665;DHT22;6905;50.770;6.730;2022-12-05T05:54:26;1.70;99.90
13665;DHT22;6905;50.770;6.730;2022-12-05T05:56:53;1.70;99.90
13665;DHT22;6905;50.770;6.730;2022-12-05T05:59:19;1.70;99.90
13665;DHT22;6905;50.770;6.730;2022-12-05T06:01:46;1.70;99.90
13665;DHT22;6905;50.770;6.730;2022-12-05T06:04:13;1.70;99.90
13665;DHT22;6905;50.770;6.730;2022-12-05T06:06:40;1.70;99.90
13665;DHT22;6905;50.770;6.730;2022-12-05T06:09:06;1.70;99.90
13665;DHT22;6905;50.770;6.730;2022-12-05T06:11:34;1.70;99.90
13665;DHT22;6905;50.770;6.730;2022-12-05T06:14:01;1.70;99.90
13665;DHT22;6905;50.770;6.730;2022-12-05T06:16:28;1.70;99.90
13665;DHT22;6905;50.770;6.730;2022-12-05T06:18:55;1.60;99.90
13665;DHT22;6905;50.770;6.730;2022-12-05T06:21:22;1.60;99.90
13665;DHT22;6905;50.770;6.730;2022-12-05T06:23:49;1.60;99.90
13665;DHT22;6905;50.770;6.730;2022-12-05T06:26:17;1.60;99.90
13665;DHT22;6905;50.770;6.730;2022-12-05T06:28:45;1.60;99.90
13665;DHT22;6905;50.770;6.730;2022-12-05T06:31:13;1.70;99.90
13665;DHT22;6905;50.770;6.730;2022-12-05T06:33:40;1.70;99.90
13665;DHT22;6905;50.770;6.730;2022-12-05T06:36:08;1.70;99.90
13665;DHT22;6905;50.770;6.730;2022-12-05T06:38:35;1.70;99.90
13665;DHT22;6905;50.770;6.730;2022-12-05T06:41:03;1.70;99.90
13665;DHT22;6905;50.770;6.730;2022-12-05T06:43:30;1.70;99.90
13665;DHT22;6905;50.770;6.730;2022-12-05T06:45:58;1.70;99.90
13665;DHT22;6905;50.770;6.730;2022-12-05T06:48:25;1.70;99.90
13665;DHT22;6905;50.770;6.730;2022-12-05T06:50:52;1.70;99.90
13665;DHT22;6905;50.770;6.730;2022-12-05T06:53:18;1.70;99.90
13665;DHT22;6905;50.770;6.730;2022-12-05T06:55:53;1.70;99.90
13665;DHT22;6905;50.770;6.730;2022-12-05T06:58:20;1.70;99.90
13665;DHT22;6905;50.770;6.730;2022-12-05T07:00:47;1.70;99.90
13665;DHT22;6905;50.770;6.730;2022-12-05T07:03:33;1.70;99.90
13665;DHT22;6905;50.770;6.730;2022-12-05T07:06:00;1.70;99.90
13665;DHT22;6905;50.770;6.730;2022-12-05T07:08:26;1.70;99.90
13665;DHT22;6905;50.770;6.730;2022-12-05T07:10:53;1.70;99.90
13665;DHT22;6905;50.770;6.730;2022-12-05T07:13:20;1.70;99.90
13665;DHT22;6905;50.770;6.730;2022-12-05T07:15:47;1.80;99.90
13665;DHT22;6905;50.770;6.730;2022-12-05T07:18:14;1.80;99.90
13665;DHT22;6905;50.770;6.730;2022-12-05T07:20:42;1.80;99.90
13665;DHT22;6905;50.770;6.730;2022-12-05T07:23:09;1.80;99.90
13665;DHT22;6905;50.770;6.730;2022-12-05T07:25:37;1.80;99.90
13665;DHT22;6905;50.770;6.730;2022-12-05T07:28:04;1.80;99.90
13665;DHT22;6905;50.770;6.730;2022-12-05T07:30:31;1.90;99.90
13665;DHT22;6905;50.770;6.730;2022-12-05T07:32:57;1.90;99.90
13665;DHT22;6905;50.770;6.730;2022-12-05T07:35:24;1.90;99.90
13665;DHT22;6905;50.770;6.730;2022-12-05T07:37:52;2.00;99.90
13665;DHT22;6905;50.770;6.730;2022-12-05T07:40:19;2.00;99.90
13665;DHT22;6905;50.770;6.730;2022-12-05T07:42:46;2.00;99.90
13665;DHT22;6905;50.770;6.730;2022-12-05T07:45:13;2.10;99.90
13665;DHT22;6905;50.770;6.730;2022-12-05T07:47:40;2.10;99.90
13665;DHT22;6905;50.770;6.730;2022-12-05T07:50:06;2.10;99.90
13665;DHT22;6905;50.770;6.730;2022-12-05T07:52:33;2.10;99.90
13665;DHT22;6905;50.770;6.730;2022-12-05T07:55:01;2.20;99.90
13665;DHT22;6905;50.770;6.730;2022-12-05T07:57:28;2.20;99.90
13665;DHT22;6905;50.770;6.730;2022-12-05T07:59:55;2.20;99.90
13665;DHT22;6905;50.770;6.730;2022-12-05T08:02:21;2.20;99.90
13665;DHT22;6905;50.770;6.730;2022-12-05T08:04:49;2.30;99.90
13665;DHT22;6905;50.770;6.730;2022-12-05T08:07:16;2.30;99.90
13665;DHT22;6905;50.770;6.730;2022-12-05T08:09:42;2.30;99.90
13665;DHT22;6905;50.770;6.730;2022-12-05T08:12:10;2.30;99.90
13665;DHT22;6905;50.770;6.730;2022-12-05T08:14:37;2.30;99.90
13665;DHT22;6905;50.770;6.730;2022-12-05T08:17:08;2.30;99.90
13665;DHT22;6905;50.770;6.730;2022-12-05T08:19:48;2.30;99.90
13665;DHT22;6905;50.770;6.730;2022-12-05T08:22:15;2.40;99.90
13665;DHT22;6905;50.770;6.730;2022-12-05T08:24:44;2.40;99.90
13665;DHT22;6905;50.770;6.730;2022-12-05T08:27:16;2.50;99.90
13665;DHT22;6905;50.770;6.730;2022-12-05T08:29:44;2.50;99.90
13665;DHT22;6905;50.770;6.730;2022-12-05T08:32:11;2.50;99.90
13665;DHT22;6905;50.770;6.730;2022-12-05T08:37:29;2.60;99.90
13665;DHT22;6905;50.770;6.730;2022-12-05T08:40:12;2.60;99.90
13665;DHT22;6905;50.770;6.730;2022-12-05T08:42:57;2.60;99.90
13665;DHT22;6905;50.770;6.730;2022-12-05T08:45:40;2.70;99.90
13665;DHT22;6905;50.770;6.730;2022-12-05T08:48:19;2.60;99.90
13665;DHT22;6905;50.770;6.730;2022-12-05T08:50:46;2.70;99.90
13665;DHT22;6905;50.770;6.730;2022-12-05T08:53:13;2.70;99.90
13665;DHT22;6905;50.770;6.730;2022-12-05T08:55:39;2.70;99.90
13665;DHT22;6905;50.770;6.730;2022-12-05T08:58:07;2.70;99.90
13665;DHT22;6905;50.770;6.730;2022-12-05T09:00:34;2.70;99.90
13665;DHT22;6905;50.770;6.730;2022-12-05T09:05:46;2.90;99.90
13665;DHT22;6905;50.770;6.730;2022-12-05T09:08:14;2.90;99.90
13665;DHT22;6905;50.770;6.730;2022-12-05T09:13:46;3.00;99.90
13665;DHT22;6905;50.770;6.730;2022-12-05T09:16:29;3.10;99.90
13665;DHT22;6905;50.770;6.730;2022-12-05T09:19:05;3.10;99.90
13665;DHT22;6905;50.770;6.730;2022-12-05T09:21:36;3.10;99.90
13665;DHT22;6905;50.770;6.730;2022-12-05T09:27:17;3.10;99.90
13665;DHT22;6905;50.770;6.730;2022-12-05T09:29:58;3.00;99.90
13665;DHT22;6905;50.770;6.730;2022-12-05T09:32:57;3.10;99.90
13665;DHT22;6905;50.770;6.730;2022-12-05T09:35:52;3.10;99.90
13665;DHT22;6905;50.770;6.730;2022-12-05T09:38:46;3.10;99.90
13665;DHT22;6905;50.770;6.730;2022-12-05T09:47:54;3.10;99.90
13665;DHT22;6905;50.770;6.730;2022-12-05T09:50:23;3.10;99.90
13665;DHT22;6905;50.770;6.730;2022-12-05T09:53:01;3.10;99.90
13665;DHT22;6905;50.770;6.730;2022-12-05T09:55:32;3.10;99.90
13665;DHT22;6905;50.770;6.730;2022-12-05T09:58:01;3.10;99.90
13665;DHT22;6905;50.770;6.730;2022-12-05T10:00:28;3.10;99.90
13665;DHT22;6905;50.770;6.730;2022-12-05T10:02:58;3.10;99.90
13665;DHT22;6905;50.770;6.730;2022-12-05T10:05:28;3.10;99.90
13665;DHT22;6905;50.770;6.730;2022-12-05T10:08:01;3.10;99.90
13665;DHT22;6905;50.770;6.730;2022-12-05T10:10:33;3.10;99.90
13665;DHT22;6905;50.770;6.730;2022-12-05T10:13:07;3.10;99.90
13665;DHT22;6905;50.770;6.730;2022-12-05T10:15:38;3.10;99.90
13665;DHT22;6905;50.770;6.730;2022-12-05T10:18:09;3.10;99.90
13665;DHT22;6905;50.770;6.730;2022-12-05T10:20:39;3.10;99.90
13665;DHT22;6905;50.770;6.730;2022-12-05T10:23:07;3.10;99.90
13665;DHT22;6905;50.770;6.730;2022-12-05T10:25:37;3.10;99.90
13665;DHT22;6905;50.770;6.730;2022-12-05T10:28:05;3.10;99.90
13665;DHT22;6905;50.770;6.730;2022-12-05T10:30:36;3.10;99.90
13665;DHT22;6905;50.770;6.730;2022-12-05T10:33:09;3.10;99.90
13665;DHT22;6905;50.770;6.730;2022-12-05T10:35:40;3.10;99.90
13665;DHT22;6905;50.770;6.730;2022-12-05T10:38:10;3.10;99.90
13665;DHT22;6905;50.770;6.730;2022-12-05T10:40:37;3.10;99.90
13665;DHT22;6905;50.770;6.730;2022-12-05T10:43:04;3.00;99.90
13665;DHT22;6905;50.770;6.730;2022-12-05T10:45:32;3.00;99.90
13665;DHT22;6905;50.770;6.730;2022-12-05T10:48:00;3.00;99.90
13665;DHT22;6905;50.770;6.730;2022-12-05T10:50:28;2.90;99.90
13665;DHT22;6905;50.770;6.730;2022-12-05T10:52:56;2.90;99.90
13665;DHT22;6905;50.770;6.730;2022-12-05T10:55:25;2.90;99.90
13665;DHT22;6905;50.770;6.730;2022-12-05T10:58:07;2.90;99.90
13665;DHT22;6905;50.770;6.730;2022-12-05T11:00:33;2.90;99.90
13665;DHT22;6905;50.770;6.730;2022-12-05T11:03:01;3.00;99.90
13665;DHT22;6905;50.770;6.730;2022-12-05T11:05:30;3.00;99.90
13665;DHT22;6905;50.770;6.730;2022-12-05T11:07:59;2.90;99.90
13665;DHT22;6905;50.770;6.730;2022-12-05T11:10:26;2.90;99.90
13665;DHT22;6905;50.770;6.730;2022-12-05T11:12:54;2.90;99.90
13665;DHT22;6905;50.770;6.730;2022-12-05T11:15:21;2.80;99.90
13665;DHT22;6905;50.770;6.730;2022-12-05T11:17:50;2.80;99.90
13665;DHT22;6905;50.770;6.730;2022-12-05T11:20:34;2.80;99.90
13665;DHT22;6905;50.770;6.730;2022-12-05T11:23:14;2.80;99.90
13665;DHT22;6905;50.770;6.730;2022-12-05T11:25:41;2.80;99.90
13665;DHT22;6905;50.770;6.730;2022-12-05T11:28:21;2.80;99.90
13665;DHT22;6905;50.770;6.730;2022-12-05T11:30:54;2.80;99.90
13665;DHT22;6905;50.770;6.730;2022-12-05T11:33:21;2.80;99.90
13665;DHT22;6905;50.770;6.730;2022-12-05T11:35:48;2.80;99.90
13665;DHT22;6905;50.770;6.730;2022-12-05T11:41:47;2.80;99.90
13665;DHT22;6905;50.770;6.730;2022-12-05T11:53:39;2.90;99.90
13665;DHT22;6905;50.770;6.730;2022-12-05T12:46:31;3.20;99.90
13665;DHT22;6905;50.770;6.730;2022-12-05T12:49:26;3.20;99.90
13665;DHT22;6905;50.770;6.730;2022-12-05T12:51:59;3.10;99.90
13665;DHT22;6905;50.770;6.730;2022-12-05T12:57:16;3.10;99.90
13665;DHT22;6905;50.770;6.730;2022-12-05T13:00:00;3.20;99.90
13665;DHT22;6905;50.770;6.730;2022-12-05T13:02:33;3.20;99.90
13665;DHT22;6905;50.770;6.730;2022-12-05T13:05:04;3.20;99.90
13665;DHT22;6905;50.770;6.730;2022-12-05T13:07:41;3.20;99.90
13665;DHT22;6905;50.770;6.730;2022-12-05T13:10:12;3.20;99.90
13665;DHT22;6905;50.770;6.730;2022-12-05T13:12:39;3.30;99.90
13665;DHT22;6905;50.770;6.730;2022-12-05T13:15:09;3.20;99.90
13665;DHT22;6905;50.770;6.730;2022-12-05T13:17:41;3.30;99.90
13665;DHT22;6905;50.770;6.730;2022-12-05T13:20:12;3.30;99.90
13665;DHT22;6905;50.770;6.730;2022-12-05T13:22:39;3.30;99.90
13665;DHT22;6905;50.770;6.730;2022-12-05T13:25:11;3.30;99.90
13665;DHT22;6905;50.770;6.730;2022-12-05T13:27:38;3.30;99.90
13665;DHT22;6905;50.770;6.730;2022-12-05T13:30:15;3.30;99.90
13665;DHT22;6905;50.770;6.730;2022-12-05T13:47:59;3.30;99.90
13665;DHT22;6905;50.770;6.730;2022-12-05T13:50:32;3.30;99.90
13665;DHT22;6905;50.770;6.730;2022-12-05T13:53:05;3.30;99.90
13665;DHT22;6905;50.770;6.730;2022-12-05T13:55:35;3.30;99.90
13665;DHT22;6905;50.770;6.730;2022-12-05T13:58:33;3.30;99.90
13665;DHT22;6905;50.770;6.730;2022-12-05T14:03:56;3.20;99.90
13665;DHT22;6905;50.770;6.730;2022-12-05T14:09:11;3.20;99.90
13665;DHT22;6905;50.770;6.730;2022-12-05T14:17:20;3.10;99.90
13665;DHT22;6905;50.770;6.730;2022-12-05T14:20:04;3.10;99.90
13665;DHT22;6905;50.770;6.730;2022-12-05T14:22:40;3.10;99.90
13665;DHT22;6905;50.770;6.730;2022-12-05T14:25:12;3.10;99.90
13665;DHT22;6905;50.770;6.730;2022-12-05T14:27:44;3.00;99.90
13665;DHT22;6905;50.770;6.730;2022-12-05T14:30:19;3.00;99.90
13665;DHT22;6905;50.770;6.730;2022-12-05T15:07:37;2.70;99.90
13665;DHT22;6905;50.770;6.730;2022-12-05T15:10:20;2.70;99.90
13665;DHT22;6905;50.770;6.730;2022-12-05T15:13:02;2.70;99.90
13665;DHT22;6905;50.770;6.730;2022-12-05T15:15:45;2.70;99.90
13665;DHT22;6905;50.770;6.730;2022-12-05T15:18:44;2.70;99.90
13665;DHT22;6905;50.770;6.730;2022-12-05T15:21:20;2.60;99.90
13665;DHT22;6905;50.770;6.730;2022-12-05T15:24:19;2.60;99.90
13665;DHT22;6905;50.770;6.730;2022-12-05T15:27:11;2.60;99.90
13665;DHT22;6905;50.770;6.730;2022-12-05T15:29:58;2.50;99.90
